sensor_id;sensor_type;location;lat;lon;timestamp;temperature;humidity
36548;DHT22;22551;52.206;4.856;2023-03-01T00:04:57;0.80;99.90
36548;DHT22;22551;52.206;4.856;2023-03-01T00:10:01;0.80;99.90
36548;DHT22;22551;52.206;4.856;2023-03-01T00:15:06;0.80;99.90
36548;DHT22;22551;52.206;4.856;2023-03-01T00:20:12;0.70;99.90
36548;DHT22;22551;52.206;4.856;2023-03-01T00:25:15;0.80;99.90
36548;DHT22;22551;52.206;4.856;2023-03-01T00:30:19;0.70;99.90
36548;DHT22;22551;52.206;4.856;2023-03-01T00:35:22;0.60;99.90
36548;DHT22;22551;52.206;4.856;2023-03-01T00:40:25;0.60;99.90
36548;DHT22;22551;52.206;4.856;2023-03-01T00:45:32;0.60;99.90
36548;DHT22;22551;52.206;4.856;2023-03-01T00:50:34;0.60;99.90
36548;DHT22;22551;52.206;4.856;2023-03-01T00:55:37;0.60;99.90
36548;DHT22;22551;52.206;4.856;2023-03-01T01:00:41;0.60;99.90
36548;DHT22;22551;52.206;4.856;2023-03-01T01:05:43;0.70;99.90
36548;DHT22;22551;52.206;4.856;2023-03-01T01:10:46;0.70;99.90
36548;DHT22;22551;52.206;4.856;2023-03-01T01:15:49;0.70;99.90
36548;DHT22;22551;52.206;4.856;2023-03-01T01:20:52;0.60;99.90
36548;DHT22;22551;52.206;4.856;2023-03-01T01:25:54;0.60;99.90
36548;DHT22;22551;52.206;4.856;2023-03-01T01:30:58;0.60;99.90
36548;DHT22;22551;52.206;4.856;2023-03-01T01:36:00;0.40;99.90
36548;DHT22;22551;52.206;4.856;2023-03-01T01:41:04;0.30;99.90
36548;DHT22;22551;52.206;4.856;2023-03-01T01:46:15;0.20;99.90
36548;DHT22;22551;52.206;4.856;2023-03-01T01:51:25;0.10;99.90
36548;DHT22;22551;52.206;4.856;2023-03-01T01:56:39;0.10;99.90
36548;DHT22;22551;52.206;4.856;2023-03-01T02:01:45;0.10;99.90
36548;DHT22;22551;52.206;4.856;2023-03-01T02:06:53;-0.10;99.90
36548;DHT22;22551;52.206;4.856;2023-03-01T02:11:58;-0.10;99.90
36548;DHT22;22551;52.206;4.856;2023-03-01T02:17:05;-0.30;99.90
36548;DHT22;22551;52.206;4.856;2023-03-01T02:22:16;-0.20;99.90
36548;DHT22;22551;52.206;4.856;2023-03-01T02:27:28;-0.30;99.90
36548;DHT22;22551;52.206;4.856;2023-03-01T02:32:39;-0.40;99.90
36548;DHT22;22551;52.206;4.856;2023-03-01T02:37:43;-0.50;99.90
36548;DHT22;22551;52.206;4.856;2023-03-01T02:42:51;-0.50;99.90
36548;DHT22;22551;52.206;4.856;2023-03-01T02:47:56;-0.50;99.90
36548;DHT22;22551;52.206;4.856;2023-03-01T02:53:01;-0.60;99.90
36548;DHT22;22551;52.206;4.856;2023-03-01T02:58:08;-0.60;99.90
36548;DHT22;22551;52.206;4.856;2023-03-01T03:03:13;-0.70;99.90
36548;DHT22;22551;52.206;4.856;2023-03-01T03:08:16;-0.70;99.90
36548;DHT22;22551;52.206;4.856;2023-03-01T03:13:24;-0.60;99.90
36548;DHT22;22551;52.206;4.856;2023-03-01T03:18:30;-0.60;99.90
36548;DHT22;22551;52.206;4.856;2023-03-01T03:23:33;-0.70;99.90
36548;DHT22;22551;52.206;4.856;2023-03-01T03:28:36;-0.60;99.90
36548;DHT22;22551;52.206;4.856;2023-03-01T03:33:41;-0.60;99.90
36548;DHT22;22551;52.206;4.856;2023-03-01T03:38:44;-0.60;99.90
36548;DHT22;22551;52.206;4.856;2023-03-01T03:43:47;-0.60;99.90
36548;DHT22;22551;52.206;4.856;2023-03-01T03:48:51;-0.70;99.90
36548;DHT22;22551;52.206;4.856;2023-03-01T03:53:53;-0.80;99.90
36548;DHT22;22551;52.206;4.856;2023-03-01T03:58:55;-0.80;99.90
36548;DHT22;22551;52.206;4.856;2023-03-01T04:04:01;-0.90;99.90
36548;DHT22;22551;52.206;4.856;2023-03-01T04:09:04;-1.00;99.90
36548;DHT22;22551;52.206;4.856;2023-03-01T04:14:07;-1.10;99.90
36548;DHT22;22551;52.206;4.856;2023-03-01T04:19:11;-1.10;99.90
36548;DHT22;22551;52.206;4.856;2023-03-01T04:24:13;-1.10;99.90
36548;DHT22;22551;52.206;4.856;2023-03-01T04:29:15;-1.10;99.90
36548;DHT22;22551;52.206;4.856;2023-03-01T04:34:19;-1.10;99.90
36548;DHT22;22551;52.206;4.856;2023-03-01T04:39:21;-1.20;99.90
36548;DHT22;22551;52.206;4.856;2023-03-01T04:44:28;-1.20;99.90
36548;DHT22;22551;52.206;4.856;2023-03-01T04:49:32;-1.20;99.90
36548;DHT22;22551;52.206;4.856;2023-03-01T04:54:35;-1.30;99.90
36548;DHT22;22551;52.206;4.856;2023-03-01T04:59:37;-1.40;99.90
36548;DHT22;22551;52.206;4.856;2023-03-01T05:04:41;-1.40;99.90
36548;DHT22;22551;52.206;4.856;2023-03-01T05:09:43;-1.50;99.90
36548;DHT22;22551;52.206;4.856;2023-03-01T05:14:45;-1.50;99.90
36548;DHT22;22551;52.206;4.856;2023-03-01T05:19:49;-1.50;99.90
36548;DHT22;22551;52.206;4.856;2023-03-01T05:24:51;-1.60;99.90
36548;DHT22;22551;52.206;4.856;2023-03-01T05:29:54;-1.40;99.90
36548;DHT22;22551;52.206;4.856;2023-03-01T05:34:58;-1.40;99.90
36548;DHT22;22551;52.206;4.856;2023-03-01T05:40:00;-1.30;99.90
36548;DHT22;22551;52.206;4.856;2023-03-01T05:45:04;-1.30;99.90
36548;DHT22;22551;52.206;4.856;2023-03-01T05:50:16;-1.40;99.90
36548;DHT22;22551;52.206;4.856;2023-03-01T05:55:20;-1.40;99.90
36548;DHT22;22551;52.206;4.856;2023-03-01T06:00:23;-1.50;99.90
36548;DHT22;22551;52.206;4.856;2023-03-01T06:05:27;-1.30;99.90
36548;DHT22;22551;52.206;4.856;2023-03-01T06:10:30;-1.30;99.90
36548;DHT22;22551;52.206;4.856;2023-03-01T06:15:32;-1.40;99.90
36548;DHT22;22551;52.206;4.856;2023-03-01T06:20:36;-1.30;99.90
36548;DHT22;22551;52.206;4.856;2023-03-01T06:25:38;-1.30;99.90
36548;DHT22;22551;52.206;4.856;2023-03-01T06:30:40;-1.00;99.90
36548;DHT22;22551;52.206;4.856;2023-03-01T06:35:44;-1.00;99.90
36548;DHT22;22551;52.206;4.856;2023-03-01T06:40:51;-1.00;99.90
36548;DHT22;22551;52.206;4.856;2023-03-01T06:45:54;-1.00;99.90
36548;DHT22;22551;52.206;4.856;2023-03-01T06:50:59;-1.00;99.90
36548;DHT22;22551;52.206;4.856;2023-03-01T06:56:02;-1.10;99.90
36548;DHT22;22551;52.206;4.856;2023-03-01T07:01:07;-1.10;99.90
36548;DHT22;22551;52.206;4.856;2023-03-01T07:06:11;-1.10;99.90
36548;DHT22;22551;52.206;4.856;2023-03-01T07:11:14;-1.20;99.90
36548;DHT22;22551;52.206;4.856;2023-03-01T07:16:16;-1.20;99.90
36548;DHT22;22551;52.206;4.856;2023-03-01T07:21:20;-1.10;99.90
36548;DHT22;22551;52.206;4.856;2023-03-01T08:00:11;-0.50;99.90
36548;DHT22;22551;52.206;4.856;2023-03-01T08:05:14;-0.10;99.90
36548;DHT22;22551;52.206;4.856;2023-03-01T08:10:17;0.00;99.90
36548;DHT22;22551;52.206;4.856;2023-03-01T08:15:21;0.00;99.90
36548;DHT22;22551;52.206;4.856;2023-03-01T08:20:23;0.10;99.90
36548;DHT22;22551;52.206;4.856;2023-03-01T08:25:25;0.30;99.90
36548;DHT22;22551;52.206;4.856;2023-03-01T08:30:30;0.40;99.90
36548;DHT22;22551;52.206;4.856;2023-03-01T08:35:34;0.60;99.90
36548;DHT22;22551;52.206;4.856;2023-03-01T08:40:36;0.90;99.90
36548;DHT22;22551;52.206;4.856;2023-03-01T08:45:40;1.20;99.90
36548;DHT22;22551;52.206;4.856;2023-03-01T08:50:42;1.30;99.90
36548;DHT22;22551;52.206;4.856;2023-03-01T08:55:44;1.50;99.90
36548;DHT22;22551;52.206;4.856;2023-03-01T09:00:48;1.70;99.90
36548;DHT22;22551;52.206;4.856;2023-03-01T09:05:50;1.80;99.90
36548;DHT22;22551;52.206;4.856;2023-03-01T09:10:53;2.00;99.90
36548;DHT22;22551;52.206;4.856;2023-03-01T09:15:57;2.20;99.90
36548;DHT22;22551;52.206;4.856;2023-03-01T09:21:03;2.50;99.90
36548;DHT22;22551;52.206;4.856;2023-03-01T09:26:08;2.70;99.90
36548;DHT22;22551;52.206;4.856;2023-03-01T09:31:22;2.90;99.90
36548;DHT22;22551;52.206;4.856;2023-03-01T09:36:25;3.20;99.90
36548;DHT22;22551;52.206;4.856;2023-03-01T09:41:42;3.30;99.90
36548;DHT22;22551;52.206;4.856;2023-03-01T09:46:48;3.60;99.90
36548;DHT22;22551;52.206;4.856;2023-03-01T09:52:00;3.90;99.90
36548;DHT22;22551;52.206;4.856;2023-03-01T09:57:14;4.20;99.90
36548;DHT22;22551;52.206;4.856;2023-03-01T10:02:35;4.50;99.90
36548;DHT22;22551;52.206;4.856;2023-03-01T10:07:46;4.60;99.90
36548;DHT22;22551;52.206;4.856;2023-03-01T10:12:51;4.90;99.90
36548;DHT22;22551;52.206;4.856;2023-03-01T10:17:59;5.20;99.90
36548;DHT22;22551;52.206;4.856;2023-03-01T10:23:08;5.50;99.90
36548;DHT22;22551;52.206;4.856;2023-03-01T10:28:16;5.40;99.90
36548;DHT22;22551;52.206;4.856;2023-03-01T10:33:23;5.30;99.90
36548;DHT22;22551;52.206;4.856;2023-03-01T10:38:31;5.50;99.90
36548;DHT22;22551;52.206;4.856;2023-03-01T10:43:44;5.40;99.90
36548;DHT22;22551;52.206;4.856;2023-03-01T10:49:06;5.50;99.90
36548;DHT22;22551;52.206;4.856;2023-03-01T10:54:20;5.70;99.90
36548;DHT22;22551;52.206;4.856;2023-03-01T10:59:29;5.80;99.90
36548;DHT22;22551;52.206;4.856;2023-03-01T11:04:37;5.80;99.90
36548;DHT22;22551;52.206;4.856;2023-03-01T11:09:39;5.90;99.90
36548;DHT22;22551;52.206;4.856;2023-03-01T11:14:47;6.10;99.90
36548;DHT22;22551;52.206;4.856;2023-03-01T11:20:02;6.00;99.90
36548;DHT22;22551;52.206;4.856;2023-03-01T11:25:12;6.30;99.90
36548;DHT22;22551;52.206;4.856;2023-03-01T11:30:20;6.20;99.90
36548;DHT22;22551;52.206;4.856;2023-03-01T11:35:27;6.20;99.90
36548;DHT22;22551;52.206;4.856;2023-03-01T11:40:34;6.00;99.90
36548;DHT22;22551;52.206;4.856;2023-03-01T11:45:51;6.50;99.90
36548;DHT22;22551;52.206;4.856;2023-03-01T11:51:07;6.70;99.90
36548;DHT22;22551;52.206;4.856;2023-03-01T11:56:19;6.70;99.90
36548;DHT22;22551;52.206;4.856;2023-03-01T12:01:37;6.80;99.90
36548;DHT22;22551;52.206;4.856;2023-03-01T12:07:04;6.90;99.90
36548;DHT22;22551;52.206;4.856;2023-03-01T12:12:26;7.00;99.90
36548;DHT22;22551;52.206;4.856;2023-03-01T12:17:57;7.20;99.90
36548;DHT22;22551;52.206;4.856;2023-03-01T12:29:26;7.50;99.90
36548;DHT22;22551;52.206;4.856;2023-03-01T12:34:50;7.40;99.90
36548;DHT22;22551;52.206;4.856;2023-03-01T12:40:29;7.50;99.90
36548;DHT22;22551;52.206;4.856;2023-03-01T12:45:51;7.70;99.90
36548;DHT22;22551;52.206;4.856;2023-03-01T12:51:02;7.20;99.90
36548;DHT22;22551;52.206;4.856;2023-03-01T12:56:09;7.30;99.90
36548;DHT22;22551;52.206;4.856;2023-03-01T13:01:21;7.30;99.90
36548;DHT22;22551;52.206;4.856;2023-03-01T13:06:32;7.30;99.90
36548;DHT22;22551;52.206;4.856;2023-03-01T13:11:43;7.40;99.90
36548;DHT22;22551;52.206;4.856;2023-03-01T13:16:46;7.30;99.90
36548;DHT22;22551;52.206;4.856;2023-03-01T13:21:51;7.50;99.90
36548;DHT22;22551;52.206;4.856;2023-03-01T13:27:11;7.30;99.90
36548;DHT22;22551;52.206;4.856;2023-03-01T13:32:26;7.40;99.90
36548;DHT22;22551;52.206;4.856;2023-03-01T13:37:35;7.50;99.90
36548;DHT22;22551;52.206;4.856;2023-03-01T13:42:42;7.60;99.90
36548;DHT22;22551;52.206;4.856;2023-03-01T13:47:50;7.50;99.90
36548;DHT22;22551;52.206;4.856;2023-03-01T13:53:00;7.60;99.90
36548;DHT22;22551;52.206;4.856;2023-03-01T13:58:16;7.40;99.90
36548;DHT22;22551;52.206;4.856;2023-03-01T14:03:24;7.50;99.90
36548;DHT22;22551;52.206;4.856;2023-03-01T14:08:28;7.60;99.90
36548;DHT22;22551;52.206;4.856;2023-03-01T14:13:41;7.60;99.90
36548;DHT22;22551;52.206;4.856;2023-03-01T14:18:58;7.60;99.90
36548;DHT22;22551;52.206;4.856;2023-03-01T14:24:16;7.80;99.90
36548;DHT22;22551;52.206;4.856;2023-03-01T14:29:38;7.80;99.90
36548;DHT22;22551;52.206;4.856;2023-03-01T14:34:48;7.70;99.90
36548;DHT22;22551;52.206;4.856;2023-03-01T14:39:52;7.50;99.90
36548;DHT22;22551;52.206;4.856;2023-03-01T14:44:57;7.50;99.90
36548;DHT22;22551;52.206;4.856;2023-03-01T14:50:07;7.40;99.90
36548;DHT22;22551;52.206;4.856;2023-03-01T14:55:16;7.40;99.90
36548;DHT22;22551;52.206;4.856;2023-03-01T15:00:23;7.40;99.90
36548;DHT22;22551;52.206;4.856;2023-03-01T15:05:31;7.50;99.90
36548;DHT22;22551;52.206;4.856;2023-03-01T15:10:36;7.40;99.90
36548;DHT22;22551;52.206;4.856;2023-03-01T15:15:41;7.30;99.90
36548;DHT22;22551;52.206;4.856;2023-03-01T15:20:48;7.40;99.90
36548;DHT22;22551;52.206;4.856;2023-03-01T15:25:51;7.30;99.90
36548;DHT22;22551;52.206;4.856;2023-03-01T15:31:02;7.30;99.90
36548;DHT22;22551;52.206;4.856;2023-03-01T15:36:30;7.30;99.90
36548;DHT22;22551;52.206;4.856;2023-03-01T15:41:46;7.30;99.90
36548;DHT22;22551;52.206;4.856;2023-03-01T15:46:51;7.30;99.90
36548;DHT22;22551;52.206;4.856;2023-03-01T15:51:54;7.20;99.90
36548;DHT22;22551;52.206;4.856;2023-03-01T15:56:57;7.10;99.90
36548;DHT22;22551;52.206;4.856;2023-03-01T16:02:01;7.10;99.90
36548;DHT22;22551;52.206;4.856;2023-03-01T16:07:03;7.00;99.90
36548;DHT22;22551;52.206;4.856;2023-03-01T16:12:08;6.90;99.90
36548;DHT22;22551;52.206;4.856;2023-03-01T16:17:16;6.80;99.90
36548;DHT22;22551;52.206;4.856;2023-03-01T16:22:18;6.70;99.90
36548;DHT22;22551;52.206;4.856;2023-03-01T16:27:25;6.70;99.90
36548;DHT22;22551;52.206;4.856;2023-03-01T16:32:29;6.50;99.90
36548;DHT22;22551;52.206;4.856;2023-03-01T16:37:32;6.50;99.90
36548;DHT22;22551;52.206;4.856;2023-03-01T16:42:38;6.40;99.90
36548;DHT22;22551;52.206;4.856;2023-03-01T16:47:42;6.30;99.90
36548;DHT22;22551;52.206;4.856;2023-03-01T16:52:47;6.20;99.90
36548;DHT22;22551;52.206;4.856;2023-03-01T16:57:50;6.10;99.90
36548;DHT22;22551;52.206;4.856;2023-03-01T17:02:54;6.00;99.90
36548;DHT22;22551;52.206;4.856;2023-03-01T17:07:56;5.80;99.90
36548;DHT22;22551;52.206;4.856;2023-03-01T17:13:00;5.70;99.90
36548;DHT22;22551;52.206;4.856;2023-03-01T17:18:06;5.70;99.90
36548;DHT22;22551;52.206;4.856;2023-03-01T17:23:09;5.60;99.90
36548;DHT22;22551;52.206;4.856;2023-03-01T17:28:12;5.40;99.90
36548;DHT22;22551;52.206;4.856;2023-03-01T17:33:17;5.30;99.90
36548;DHT22;22551;52.206;4.856;2023-03-01T17:38:23;5.10;99.90
36548;DHT22;22551;52.206;4.856;2023-03-01T17:43:26;5.00;99.90
36548;DHT22;22551;52.206;4.856;2023-03-01T17:48:30;4.80;99.90
36548;DHT22;22551;52.206;4.856;2023-03-01T17:53:32;4.80;99.90
36548;DHT22;22551;52.206;4.856;2023-03-01T17:58:35;4.70;99.90
36548;DHT22;22551;52.206;4.856;2023-03-01T18:03:40;4.60;99.90
36548;DHT22;22551;52.206;4.856;2023-03-01T18:08:44;4.50;99.90
36548;DHT22;22551;52.206;4.856;2023-03-01T18:13:47;4.50;99.90
36548;DHT22;22551;52.206;4.856;2023-03-01T18:18:54;4.30;99.90
36548;DHT22;22551;52.206;4.856;2023-03-01T18:23:57;4.30;99.90
36548;DHT22;22551;52.206;4.856;2023-03-01T18:29:00;4.20;99.90
36548;DHT22;22551;52.206;4.856;2023-03-01T18:34:05;4.10;99.90
36548;DHT22;22551;52.206;4.856;2023-03-01T18:39:07;4.10;99.90
36548;DHT22;22551;52.206;4.856;2023-03-01T18:44:10;4.00;99.90
36548;DHT22;22551;52.206;4.856;2023-03-01T18:49:15;3.90;99.90
36548;DHT22;22551;52.206;4.856;2023-03-01T18:54:17;3.90;99.90
36548;DHT22;22551;52.206;4.856;2023-03-01T18:59:20;3.80;99.90
36548;DHT22;22551;52.206;4.856;2023-03-01T19:04:23;3.70;99.90
36548;DHT22;22551;52.206;4.856;2023-03-01T19:09:26;3.70;99.90
36548;DHT22;22551;52.206;4.856;2023-03-01T19:14:29;3.60;99.90
36548;DHT22;22551;52.206;4.856;2023-03-01T19:19:33;3.50;99.90
36548;DHT22;22551;52.206;4.856;2023-03-01T19:24:35;3.50;99.90
36548;DHT22;22551;52.206;4.856;2023-03-01T19:29:38;3.50;99.90
36548;DHT22;22551;52.206;4.856;2023-03-01T19:34:42;3.50;99.90
36548;DHT22;22551;52.206;4.856;2023-03-01T19:39:46;3.40;99.90
36548;DHT22;22551;52.206;4.856;2023-03-01T19:44:51;3.30;99.90
36548;DHT22;22551;52.206;4.856;2023-03-01T19:49:56;3.30;99.90
36548;DHT22;22551;52.206;4.856;2023-03-01T19:54:59;3.30;99.90
36548;DHT22;22551;52.206;4.856;2023-03-01T20:00:01;3.20;99.90
36548;DHT22;22551;52.206;4.856;2023-03-01T20:05:06;3.20;99.90
36548;DHT22;22551;52.206;4.856;2023-03-01T20:10:15;3.20;99.90
36548;DHT22;22551;52.206;4.856;2023-03-01T20:15:19;3.10;99.90
36548;DHT22;22551;52.206;4.856;2023-03-01T20:20:23;3.10;99.90
36548;DHT22;22551;52.206;4.856;2023-03-01T20:25:29;3.10;99.90
36548;DHT22;22551;52.206;4.856;2023-03-01T20:30:31;3.00;99.90
36548;DHT22;22551;52.206;4.856;2023-03-01T20:35:35;3.00;99.90
36548;DHT22;22551;52.206;4.856;2023-03-01T20:46:05;2.90;99.90
36548;DHT22;22551;52.206;4.856;2023-03-01T20:51:11;2.90;99.90
36548;DHT22;22551;52.206;4.856;2023-03-01T20:56:15;2.80;99.90
36548;DHT22;22551;52.206;4.856;2023-03-01T21:01:21;2.80;99.90
36548;DHT22;22551;52.206;4.856;2023-03-01T21:06:25;2.70;99.90
36548;DHT22;22551;52.206;4.856;2023-03-01T21:11:33;2.70;99.90
36548;DHT22;22551;52.206;4.856;2023-03-01T21:16:36;2.60;99.90
36548;DHT22;22551;52.206;4.856;2023-03-01T21:21:43;2.60;99.90
36548;DHT22;22551;52.206;4.856;2023-03-01T21:26:55;2.50;99.90
36548;DHT22;22551;52.206;4.856;2023-03-01T21:31:57;2.50;99.90
36548;DHT22;22551;52.206;4.856;2023-03-01T21:37:01;2.60;99.90
36548;DHT22;22551;52.206;4.856;2023-03-01T21:42:04;2.50;99.90
36548;DHT22;22551;52.206;4.856;2023-03-01T21:47:07;2.40;99.90
36548;DHT22;22551;52.206;4.856;2023-03-01T21:52:11;2.40;99.90
36548;DHT22;22551;52.206;4.856;2023-03-01T21:57:16;2.30;99.90
36548;DHT22;22551;52.206;4.856;2023-03-01T22:02:19;2.40;99.90
36548;DHT22;22551;52.206;4.856;2023-03-01T22:07:23;2.40;99.90
36548;DHT22;22551;52.206;4.856;2023-03-01T22:12:25;2.30;99.90
36548;DHT22;22551;52.206;4.856;2023-03-01T22:17:28;2.30;99.90
36548;DHT22;22551;52.206;4.856;2023-03-01T22:22:32;2.20;99.90
36548;DHT22;22551;52.206;4.856;2023-03-01T22:27:35;2.20;99.90
36548;DHT22;22551;52.206;4.856;2023-03-01T22:32:39;2.30;99.90
36548;DHT22;22551;52.206;4.856;2023-03-01T22:37:44;2.30;99.90
36548;DHT22;22551;52.206;4.856;2023-03-01T22:42:47;2.30;99.90
36548;DHT22;22551;52.206;4.856;2023-03-01T22:47:49;2.30;99.90
36548;DHT22;22551;52.206;4.856;2023-03-01T22:52:54;2.40;99.90
36548;DHT22;22551;52.206;4.856;2023-03-01T22:57:56;2.40;99.90
36548;DHT22;22551;52.206;4.856;2023-03-01T23:02:58;2.30;99.90
36548;DHT22;22551;52.206;4.856;2023-03-01T23:08:03;2.30;99.90
36548;DHT22;22551;52.206;4.856;2023-03-01T23:13:05;2.40;99.90
36548;DHT22;22551;52.206;4.856;2023-03-01T23:18:08;2.30;99.90
36548;DHT22;22551;52.206;4.856;2023-03-01T23:23:12;2.30;99.90
36548;DHT22;22551;52.206;4.856;2023-03-01T23:28:15;2.40;99.90
36548;DHT22;22551;52.206;4.856;2023-03-01T23:33:17;2.30;99.90
36548;DHT22;22551;52.206;4.856;2023-03-01T23:38:21;2.40;99.90
36548;DHT22;22551;52.206;4.856;2023-03-01T23:43:23;2.30;99.90
36548;DHT22;22551;52.206;4.856;2023-03-01T23:48:26;2.30;99.90
36548;DHT22;22551;52.206;4.856;2023-03-01T23:53:30;2.30;99.90
36548;DHT22;22551;52.206;4.856;2023-03-01T23:58:32;2.20;99.90
